Time;durP1;ratioP1;P1;durP2;ratioP2;P2;SDS_P1;SDS_P2;PMS_P1;PMS_P2;Temp;Humidity;BMP_temperature;BMP_pressure;BME280_temperature;BME280_humidity;BME280_pressure;Samples;Min_cycle;Max_cycle;Signal;HPM_P1;HPM_P2
2023/06/05 03:53:32;;;;;;;3.10;2.80;;;;;;;16.87;87.05;100723.84;5271645;33;34412;-83
2023/06/05 03:56:34;;;;;;;4.10;2.90;;;;;;;16.88;87.17;100728.25;5264996;33;34953;-82
2023/06/05 03:59:38;;;;;;;5.95;3.30;;;;;;;16.89;87.16;100733.47;5259408;33;34173;-83
2023/06/05 04:02:42;;;;;;;5.78;3.28;;;;;;;16.96;87.26;100736.16;5257721;33;32350;-83
2023/06/05 04:05:46;;;;;;;3.17;2.60;;;;;;;17.07;87.37;100737.41;5267813;33;33910;-83
2023/06/05 04:08:49;;;;;;;5.37;3.17;;;;;;;17.20;87.18;100745.56;5249452;33;34041;-83
2023/06/05 04:11:53;;;;;;;4.07;3.00;;;;;;;17.34;85.61;100732.75;5248818;33;33455;-83
2023/06/05 04:14:58;;;;;;;4.03;2.90;;;;;;;17.45;85.56;100734.81;5260246;33;33488;-83
2023/06/05 04:18:01;;;;;;;8.23;3.37;;;;;;;17.58;85.98;100733.91;5259848;33;33782;-83
2023/06/05 04:21:04;;;;;;;4.87;3.00;;;;;;;17.69;85.60;100735.97;5272429;33;33752;-83
2023/06/05 04:24:10;;;;;;;3.53;2.97;;;;;;;17.84;84.42;100739.31;5248349;33;33895;-83
2023/06/05 04:27:14;;;;;;;5.25;3.80;;;;;;;17.98;83.59;100731.87;5248261;33;35353;-83
2023/06/05 04:30:17;;;;;;;3.40;3.03;;;;;;;18.08;83.18;100732.25;5259638;33;34225;-83
2023/06/05 04:33:21;;;;;;;5.47;3.25;;;;;;;18.27;82.86;100735.91;5272569;33;33607;-83
2023/06/05 04:36:27;;;;;;;4.85;3.35;;;;;;;18.40;81.65;100731.41;5259424;33;34395;-83
2023/06/05 04:39:30;;;;;;;5.93;3.30;;;;;;;18.63;80.72;100734.38;5272465;33;33838;-83
2023/06/05 04:42:33;;;;;;;4.60;2.95;;;;;;;18.75;78.76;100727.19;5259502;33;34131;-83
2023/06/05 04:45:36;;;;;;;4.62;2.83;;;;;;;18.63;79.01;100730.81;5271063;33;34456;-83
2023/06/05 04:48:40;;;;;;;5.10;3.45;;;;;;;18.88;76.92;100736.31;5247967;33;34722;-83
2023/06/05 04:51:43;;;;;;;3.62;3.20;;;;;;;18.92;76.35;100730.16;5250557;33;33539;-83
2023/06/05 04:54:47;;;;;;;3.70;3.12;;;;;;;19.07;75.15;100737.16;5277025;33;33796;-83
2023/06/05 04:57:51;;;;;;;3.58;3.25;;;;;;;19.03;75.02;100731.31;5276911;33;34481;-83
2023/06/05 05:00:55;;;;;;;4.20;2.70;;;;;;;19.05;75.57;100739.31;5277348;33;33460;-83
2023/06/05 05:03:58;;;;;;;4.78;3.40;;;;;;;18.88;75.83;100734.41;5265872;33;34683;-83
2023/06/05 05:07:01;;;;;;;4.20;3.00;;;;;;;19.06;75.25;100738.22;5276799;33;33356;-83
2023/06/05 05:10:05;;;;;;;5.65;3.25;;;;;;;19.09;74.24;100730.44;5292283;33;33879;-83
2023/06/05 05:13:08;;;;;;;5.20;3.42;;;;;;;19.23;74.21;100740.16;5269931;33;33852;-83
2023/06/05 05:16:11;;;;;;;4.68;3.47;;;;;;;19.40;72.50;100734.09;5271097;33;33805;-83
2023/06/05 05:19:14;;;;;;;7.37;3.37;;;;;;;19.57;70.15;100737.03;5266846;33;34633;-83
2023/06/05 05:22:20;;;;;;;4.90;3.08;;;;;;;19.63;68.86;100730.69;5266254;33;35342;-83
2023/06/05 05:25:23;;;;;;;7.00;3.47;;;;;;;19.91;69.43;100733.69;5292181;33;34819;-83
2023/06/05 05:28:26;;;;;;;6.85;3.20;;;;;;;20.09;66.49;100730.06;5280221;33;33819;-83
2023/06/05 05:31:29;;;;;;;4.97;3.15;;;;;;;20.00;66.82;100734.19;5286706;33;34016;-87
2023/06/05 05:34:33;;;;;;;4.62;3.25;;;;;;;20.03;66.20;100739.19;5281497;33;33632;-87
2023/06/05 05:37:36;;;;;;;5.62;3.33;;;;;;;19.74;66.93;100734.56;5287100;33;33598;-87
2023/06/05 05:40:40;;;;;;;4.12;2.90;;;;;;;19.97;67.43;100739.31;5281375;33;34553;-84
2023/06/05 05:43:42;;;;;;;5.22;3.40;;;;;;;19.96;66.27;100740.38;5262885;33;33825;-84
2023/06/05 05:46:47;;;;;;;7.57;3.30;;;;;;;20.01;64.99;100740.53;5261272;33;34615;-84
2023/06/05 05:49:50;;;;;;;6.80;3.37;;;;;;;20.02;63.46;100733.97;5287826;33;34981;-84
2023/06/05 05:52:53;;;;;;;10.63;3.28;;;;;;;20.02;64.04;100744.91;5271154;33;33468;-84
2023/06/05 05:55:56;;;;;;;6.95;3.40;;;;;;;20.03;63.91;100746.56;5265777;33;33964;-84
2023/06/05 05:58:58;;;;;;;7.15;3.83;;;;;;;20.22;64.36;100750.94;5276829;33;34215;-84
2023/06/05 06:02:08;;;;;;;5.65;3.67;;;;;;;20.25;63.46;100746.91;5259378;33;33831;-84
2023/06/05 06:05:12;;;;;;;5.80;3.30;;;;;;;20.24;63.33;100747.97;5247901;33;33740;-84
2023/06/05 06:08:16;;;;;;;5.20;3.15;;;;;;;20.37;63.53;100745.03;5246837;33;33522;-84
2023/06/05 06:11:19;;;;;;;4.18;3.45;;;;;;;20.37;62.92;100742.31;5270899;33;34631;-84
2023/06/05 06:14:23;;;;;;;7.93;3.03;;;;;;;20.59;62.85;100743.47;5247335;33;34399;-84
2023/06/05 06:17:28;;;;;;;7.40;3.30;;;;;;;20.72;63.33;100736.94;5247888;33;33613;-84
2023/06/05 06:20:32;;;;;;;5.62;3.62;;;;;;;;;;5247279;33;33902;-84
2023/06/05 06:23:35;;;;;;;8.38;3.47;;;;;;;20.80;63.68;100744.78;5280421;33;33584;-84
2023/06/05 06:26:38;;;;;;;6.03;3.65;;;;;;;20.97;62.58;100750.41;5274806;33;34231;-84
2023/06/05 06:29:52;;;;;;;6.40;3.62;;;;;;;21.06;61.85;100740.75;5290319;33;33899;-85
2023/06/05 06:32:58;;;;;;;5.68;3.50;;;;;;;21.01;60.61;100734.34;5287215;33;35395;-84
2023/06/05 06:36:01;;;;;;;7.93;3.47;;;;;;;21.23;60.06;100740.03;5276819;33;34641;-83
2023/06/05 06:39:04;;;;;;;8.13;3.67;;;;;;;21.40;59.77;100726.47;5263850;33;35399;-83
2023/06/05 06:42:09;;;;;;;6.15;3.80;;;;;;;21.39;59.98;100730.28;5288482;33;33865;-83
2023/06/05 06:45:14;;;;;;;7.93;3.58;;;;;;;21.39;60.57;100724.81;5288624;33;34452;-83
2023/06/05 06:48:18;;;;;;;7.10;3.60;;;;;;;21.38;60.47;100725.88;5289807;33;33543;-83
2023/06/05 06:51:24;;;;;;;8.57;3.28;;;;;;;21.60;60.45;100726.06;5290477;33;33484;-83
2023/06/05 06:54:28;;;;;;;6.07;3.37;;;;;;;21.66;60.10;100723.19;5264730;33;33897;-83
2023/06/05 06:57:31;;;;;;;11.75;3.42;;;;;;;21.53;58.55;100718.00;5264605;33;33995;-83
2023/06/05 07:00:34;;;;;;;10.70;3.70;;;;;;;21.34;57.89;100730.12;5274406;33;34953;-83
2023/06/05 07:03:38;;;;;;;3.33;2.92;;;;;;;21.38;58.18;100721.25;5277968;33;33949;-83
2023/06/05 07:06:41;;;;;;;3.75;2.78;;;;;;;21.14;58.41;100731.34;5248618;33;33478;-83
2023/06/05 07:09:45;;;;;;;6.68;3.25;;;;;;;21.19;58.97;100730.62;5257764;33;33877;-83
2023/06/05 07:12:48;;;;;;;3.67;3.22;;;;;;;21.20;58.85;100724.91;5267743;33;33374;-83
2023/06/05 07:15:51;;;;;;;5.32;3.00;;;;;;;21.14;56.84;100734.06;5288622;33;35345;-83
2023/06/05 07:18:55;;;;;;;4.57;2.90;;;;;;;21.20;55.35;100729.56;5287870;33;33621;-83
2023/06/05 07:21:59;;;;;;;3.17;2.87;;;;;;;21.20;56.65;100730.38;5268082;33;34449;-83
2023/06/05 07:25:03;;;;;;;4.80;3.10;;;;;;;21.16;55.26;100728.37;5251814;33;33849;-87
2023/06/05 07:28:13;;;;;;;4.28;3.20;;;;;;;21.13;54.93;100731.59;5288892;33;33646;-88
2023/06/05 07:31:18;;;;;;;7.28;3.65;;;;;;;20.98;55.29;100732.06;5270651;33;33579;-84
2023/06/05 07:34:22;;;;;;;7.47;3.42;;;;;;;21.01;55.11;100739.81;5286732;33;33562;-84
2023/06/05 07:37:25;;;;;;;4.05;3.03;;;;;;;21.10;55.47;100738.37;5262481;33;33502;-84
2023/06/05 07:40:28;;;;;;;4.75;2.78;;;;;;;21.17;54.78;100743.72;5286100;33;33633;-84
2023/06/05 07:43:31;;;;;;;4.22;2.95;;;;;;;21.20;55.00;100738.59;5270457;33;33460;-84
2023/06/05 07:46:34;;;;;;;9.43;3.47;;;;;;;21.11;55.43;100741.94;5275974;33;33912;-84
2023/06/05 07:49:37;;;;;;;6.07;3.00;;;;;;;21.15;55.20;100743.97;5253031;33;33676;-84
2023/06/05 07:52:40;;;;;;;5.62;2.80;;;;;;;20.93;54.34;100745.63;5277541;33;34432;-84
2023/06/05 07:55:43;;;;;;;6.50;3.40;;;;;;;20.90;55.31;100743.38;5272998;33;33803;-84
2023/06/05 07:58:46;;;;;;;7.60;3.47;;;;;;;20.98;55.62;100741.13;5283408;33;33835;-84
2023/06/05 08:01:49;;;;;;;7.82;3.10;;;;;;;21.09;54.85;100741.34;5264772;33;33747;-84
2023/06/05 08:04:52;;;;;;;5.57;3.05;;;;;;;21.13;54.34;100739.81;5262001;33;33774;-84
2023/06/05 08:07:55;;;;;;;7.30;3.78;;;;;;;21.03;55.04;100745.84;5287979;33;34604;-84
2023/06/05 08:10:58;;;;;;;5.05;3.12;;;;;;;20.94;55.79;100741.81;5277721;33;34647;-84
2023/06/05 08:14:03;;;;;;;4.15;3.22;;;;;;;20.92;55.72;100741.25;5274243;33;33799;-84
2023/06/05 08:17:06;;;;;;;4.20;3.25;;;;;;;21.08;55.49;100740.50;5263335;33;33617;-84
2023/06/05 08:20:10;;;;;;;10.63;3.50;;;;;;;21.16;54.85;100733.84;5256932;33;33803;-83
2023/06/05 08:23:14;;;;;;;4.62;3.15;;;;;;;21.20;54.77;100738.59;5262195;33;33825;-83
2023/06/05 08:26:21;;;;;;;19.67;3.72;;;;;;;21.18;53.89;100740.75;5272637;33;33948;-83
2023/06/05 08:29:25;;;;;;;8.35;3.60;;;;;;;21.25;54.68;100744.19;5288432;33;35039;-83
2023/06/05 08:32:27;;;;;;;6.90;3.40;;;;;;;21.31;54.83;100744.31;5291298;33;33745;-83
2023/06/05 08:35:30;;;;;;;6.35;3.10;;;;;;;21.31;54.54;100744.31;5261714;33;34501;-83
2023/06/05 08:38:35;;;;;;;9.23;3.15;;;;;;;21.25;55.15;100737.88;5264949;33;34583;-84
2023/06/05 08:41:43;;;;;;;11.90;4.47;;;;;;;21.40;55.78;100740.16;5280635;33;34636;-83
2023/06/05 08:44:49;;;;;;;5.75;2.97;;;;;;;21.50;56.10;100745.87;5285431;33;33533;-83
2023/06/05 08:48:05;;;;;;;5.10;3.28;;;;;;;21.63;55.57;100737.38;5272324;33;34122;-83
2023/06/05 08:51:13;;;;;;;7.10;3.50;;;;;;;21.51;55.53;100742.06;5286640;33;33624;-83
2023/06/05 08:54:19;;;;;;;6.55;3.30;;;;;;;21.68;55.27;100737.47;5293133;33;33437;-83
2023/06/05 08:57:22;;;;;;;7.12;3.72;;;;;;;21.46;56.28;100740.03;5290568;33;35060;-83
2023/06/05 09:00:25;;;;;;;16.25;4.20;;;;;;;21.70;55.75;100735.34;5279451;33;35593;-83
2023/06/05 09:03:28;;;;;;;13.95;3.40;;;;;;;21.79;55.29;100737.69;5276373;33;33512;-83
2023/06/05 09:06:32;;;;;;;5.95;3.30;;;;;;;21.92;56.00;100737.41;5260315;33;33893;-83
2023/06/05 09:09:35;;;;;;;6.55;3.60;;;;;;;22.00;55.29;100737.03;5276548;33;33505;-83
2023/06/05 09:12:59;;;;;;;9.27;3.55;;;;;;;22.29;54.53;100731.53;5266644;33;34173;-87
2023/06/05 09:16:02;;;;;;;8.73;3.50;;;;;;;22.54;55.26;100728.41;5276920;33;34143;-84
2023/06/05 09:19:06;;;;;;;7.50;3.45;;;;;;;22.73;55.49;100732.59;5281154;33;34621;-84
2023/06/05 09:22:10;;;;;;;9.07;3.25;;;;;;;23.06;52.96;100728.16;5303048;33;34245;-84
2023/06/05 09:25:14;;;;;;;5.57;3.20;;;;;;;23.08;52.96;100721.34;5295757;33;34447;-84
2023/06/05 09:28:17;;;;;;;6.90;3.60;;;;;;;23.41;52.16;100727.00;5280316;33;34751;-84
2023/06/05 09:31:21;;;;;;;6.55;3.50;;;;;;;23.77;51.72;100718.13;5276529;33;33821;-84
2023/06/05 09:34:26;;;;;;;5.62;3.00;;;;;;;24.27;50.40;100723.62;5263189;33;33680;-84
2023/06/05 09:37:35;;;;;;;5.30;3.08;;;;;;;24.08;48.88;100714.91;5277424;33;33880;-84
2023/06/05 09:40:38;;;;;;;5.85;2.90;;;;;;;24.62;48.15;100723.97;5274731;33;33613;-83
2023/06/05 09:43:41;;;;;;;5.45;3.20;;;;;;;24.51;48.25;100725.00;5260936;33;33983;-84
2023/06/05 09:47:08;;;;;;;5.78;3.25;;;;;;;25.01;48.04;100725.63;5247795;33;34960;-84
2023/06/05 09:50:27;;;;;;;5.65;2.97;;;;;;;25.04;44.97;100730.62;5269536;33;34895;-84
2023/06/05 09:53:31;;;;;;;5.15;3.15;;;;;;;25.25;45.68;100724.16;5288196;33;34356;-84
2023/06/05 09:56:35;;;;;;;7.25;2.90;;;;;;;25.25;46.68;100726.09;5280197;33;34355;-84
2023/06/05 09:59:54;;;;;;;4.15;3.20;;;;;;;25.40;43.97;100725.34;5274881;33;34854;-84
2023/06/05 10:02:59;;;;;;;3.62;2.90;;;;;;;25.52;43.11;100723.19;5288077;33;33886;-83
2023/06/05 10:06:06;;;;;;;4.32;2.90;;;;;;;25.71;43.47;100720.75;5261264;33;33745;-84
2023/06/05 10:09:14;;;;;;;4.00;2.83;;;;;;;25.42;43.84;100707.44;5283502;33;33938;-84
2023/06/05 10:12:19;;;;;;;5.00;3.03;;;;;;;26.21;42.48;100711.00;5282974;33;33986;-84
2023/06/05 10:15:23;;;;;;;4.20;2.83;;;;;;;26.56;41.48;100695.56;5287812;33;34181;-84
2023/06/05 10:18:27;;;;;;;5.45;3.17;;;;;;;26.15;41.40;100692.75;5284767;33;34969;-85
2023/06/05 10:21:30;;;;;;;5.78;2.80;;;;;;;26.85;40.50;100699.44;5280574;33;33948;-84
2023/06/05 10:24:35;;;;;;;6.00;3.20;;;;;;;26.08;40.57;100687.53;5260200;33;33562;-85
2023/06/05 10:28:03;;;;;;;4.03;2.67;;;;;;;26.46;40.51;100677.87;5271252;33;34252;-84
2023/06/05 10:31:09;;;;;;;6.15;2.87;;;;;;;26.50;41.60;100682.88;5288760;33;33378;-84
2023/06/05 10:34:33;;;;;;;4.65;2.62;;;;;;;26.97;40.56;100668.75;5287337;33;34827;-84
2023/06/05 10:37:51;;;;;;;4.65;2.67;;;;;;;27.81;37.47;100672.56;5270838;33;33882;-84
2023/06/05 10:40:55;;;;;;;4.00;2.62;;;;;;;28.50;35.66;100674.63;5263325;33;33984;-84
2023/06/05 10:43:59;;;;;;;4.72;2.40;;;;;;;29.16;35.87;100662.84;5280553;33;34553;-84
2023/06/05 10:47:33;;;;;;;5.35;2.33;;;;;;;29.47;29.41;100670.81;5278668;33;34930;-84
2023/06/05 10:50:37;;;;;;;4.40;2.17;;;;;;;29.87;28.87;100657.53;5267840;33;33577;-84
2023/06/05 10:53:46;;;;;;;3.83;2.33;;;;;;;29.91;26.94;100647.47;5287725;33;34456;-84
2023/06/05 10:56:53;;;;;;;3.05;2.10;;;;;;;30.59;27.02;100646.91;5287445;33;35205;-84
2023/06/05 11:00:11;;;;;;;2.00;1.80;;;;;;;31.53;26.21;100650.37;5288293;33;34620;-84
2023/06/05 11:03:14;;;;;;;3.53;2.08;;;;;;;31.43;25.10;100651.44;5288921;33;34538;-87
2023/06/05 11:06:17;;;;;;;1.95;1.80;;;;;;;30.94;25.89;100655.75;5288706;33;35200;-89
2023/06/05 11:09:20;;;;;;;3.37;2.10;;;;;;;30.84;26.34;100650.37;5266622;33;33639;-88
2023/06/05 11:12:23;;;;;;;4.55;2.05;;;;;;;30.87;25.12;100649.78;5278904;33;33831;-89
2023/06/05 11:15:40;;;;;;;5.03;2.37;;;;;;;30.52;26.86;100649.28;5286081;33;33868;-85
2023/06/05 11:18:45;;;;;;;3.65;2.47;;;;;;;30.73;27.26;100646.94;5281818;33;34308;-84
2023/06/05 11:22:07;;;;;;;2.90;2.28;;;;;;;30.97;27.00;100646.78;5275491;33;33894;-85
2023/06/05 11:25:13;;;;;;;4.07;2.00;;;;;;;30.47;27.13;100639.06;5299123;33;34835;-85
2023/06/05 11:28:37;;;;;;;4.68;2.33;;;;;;;31.77;26.69;100641.78;5302393;33;35399;-85
2023/06/05 11:31:40;;;;;;;2.20;1.95;;;;;;;31.76;25.98;100640.94;5292036;33;34883;-85
2023/06/05 11:34:47;;;;;;;4.68;2.30;;;;;;;32.65;26.75;100638.53;5292691;33;33862;-84
2023/06/05 11:38:26;;;;;;;4.62;2.17;;;;;;;32.35;26.70;100646.50;5293296;33;34066;-84
2023/06/05 11:41:29;;;;;;;4.03;2.15;;;;;;;31.92;26.37;100637.84;5287399;33;34505;-84
2023/06/05 11:44:35;;;;;;;5.55;2.20;;;;;;;31.94;26.40;100630.84;5288201;33;33587;-84
2023/06/05 11:47:38;;;;;;;2.87;2.37;;;;;;;32.33;26.16;100632.09;5288571;33;33789;-84
2023/06/05 11:51:02;;;;;;;2.22;2.00;;;;;;;33.75;24.01;100628.38;5290723;33;34249;-85
2023/06/05 11:54:07;;;;;;;2.80;1.87;;;;;;;33.59;24.15;100620.50;5291972;33;33881;-88
2023/06/05 11:57:12;;;;;;;3.45;1.92;;;;;;;33.50;25.09;100624.41;5268102;33;34239;-89
2023/06/05 12:00:22;;;;;;;2.20;2.00;;;;;;;34.41;24.02;100612.22;5278507;33;33420;-89
2023/06/05 12:03:28;;;;;;;4.60;2.10;;;;;;;34.50;23.18;100606.63;5309486;33;33747;-85
2023/06/05 12:06:31;;;;;;;3.08;2.10;;;;;;;34.90;23.17;100604.34;5285335;33;34545;-85
2023/06/05 12:09:34;;;;;;;3.22;2.10;;;;;;;34.78;23.33;100601.44;5300057;33;34164;-85
2023/06/05 12:12:51;;;;;;;2.78;2.37;;;;;;;34.50;23.22;100598.22;5316993;33;33762;-84
2023/06/05 12:15:58;;;;;;;3.62;2.30;;;;;;;32.88;24.86;100603.00;5295511;33;33487;-84
2023/06/05 12:19:10;;;;;;;4.82;2.30;;;;;;;32.99;25.17;100598.81;5279291;33;34011;-84
2023/06/05 12:22:19;;;;;;;3.45;2.20;;;;;;;31.93;26.22;100590.19;5287453;33;35339;-84
2023/06/05 12:25:22;;;;;;;5.50;2.25;;;;;;;31.87;26.78;100585.03;5274596;33;35474;-84
2023/06/05 12:28:27;;;;;;;3.08;2.17;;;;;;;32.66;25.68;100584.41;5306529;33;35370;-84
2023/06/05 12:31:39;;;;;;;2.37;2.17;;;;;;;32.06;26.15;100580.13;5290683;33;35518;-84
2023/06/05 12:34:50;;;;;;;3.33;2.22;;;;;;;31.36;27.18;100579.53;5300936;33;34860;-84
2023/06/05 12:38:08;;;;;;;2.53;2.30;;;;;;;31.96;26.66;100572.00;5283694;33;37081;-83
2023/06/05 12:41:11;;;;;;;2.85;1.95;;;;;;;31.53;27.02;100573.31;5251462;33;33652;-83
2023/06/05 12:44:14;;;;;;;5.25;2.28;;;;;;;31.42;27.00;100571.06;5282355;33;34111;-83
2023/06/05 12:47:17;;;;;;;3.85;2.08;;;;;;;31.72;27.62;100567.56;5252984;33;34047;-83
2023/06/05 12:50:21;;;;;;;6.50;2.20;;;;;;;30.85;27.56;100560.28;5261551;33;33864;-84
2023/06/05 12:53:25;;;;;;;3.80;2.00;;;;;;;30.75;27.80;100560.47;5266164;33;33567;-83
2023/06/05 12:56:29;;;;;;;5.25;2.20;;;;;;;30.97;28.36;100551.41;5290707;33;33852;-84
2023/06/05 12:59:32;;;;;;;3.40;2.40;;;;;;;30.40;27.46;100557.25;5289630;33;33812;-84
2023/06/05 13:02:36;;;;;;;4.18;2.15;;;;;;;30.00;28.17;100549.31;5261939;33;33684;-85
2023/06/05 13:05:39;;;;;;;2.97;2.03;;;;;;;30.52;28.47;100545.63;5260401;33;33793;-84
2023/06/05 13:08:42;;;;;;;3.10;2.10;;;;;;;30.97;26.84;100546.69;5273893;33;33611;-85
2023/06/05 13:11:45;;;;;;;3.70;2.40;;;;;;;31.20;26.68;100547.56;5265904;33;34708;-85
2023/06/05 13:14:48;;;;;;;3.60;2.28;;;;;;;30.93;26.75;100537.31;5304434;33;34959;-87
2023/06/05 13:17:51;;;;;;;2.50;2.28;;;;;;;30.86;27.04;100540.53;5276849;33;33851;-87
2023/06/05 13:20:54;;;;;;;3.72;2.10;;;;;;;30.05;27.66;100540.06;5283760;33;33800;-88
2023/06/05 13:23:57;;;;;;;2.47;2.28;;;;;;;29.96;27.31;100542.72;5272603;33;34510;-88
2023/06/05 13:27:00;;;;;;;6.72;2.22;;;;;;;29.80;27.65;100535.75;5262550;33;33839;-85
2023/06/05 13:30:03;;;;;;;5.85;2.12;;;;;;;29.60;27.86;100537.72;5261284;33;34387;-85
2023/06/05 13:33:06;;;;;;;3.90;2.30;;;;;;;29.93;27.96;100535.00;5261737;33;34494;-84
2023/06/05 13:36:09;;;;;;;9.23;2.90;;;;;;;29.95;26.70;100532.75;5281758;33;34670;-85
2023/06/05 13:39:14;;;;;;;2.60;2.30;;;;;;;30.05;27.03;100528.97;5282875;33;34083;-84
2023/06/05 13:42:18;;;;;;;4.28;2.50;;;;;;;29.40;27.54;100526.94;5292579;33;33830;-84
2023/06/05 13:45:21;;;;;;;4.12;2.25;;;;;;;29.08;28.29;100522.97;5291063;33;33787;-86
2023/06/05 13:48:24;;;;;;;3.03;2.28;;;;;;;29.42;28.09;100527.44;5281391;33;33895;-86
2023/06/05 13:51:27;;;;;;;4.28;2.53;;;;;;;29.21;27.96;100524.16;5290213;33;33895;-87
2023/06/05 13:54:30;;;;;;;3.35;2.37;;;;;;;29.38;28.46;100521.69;5289748;33;33950;-87
2023/06/05 13:57:32;;;;;;;4.22;2.30;;;;;;;29.47;28.23;100518.25;5281283;33;34416;-87
2023/06/05 14:00:35;;;;;;;2.05;1.92;;;;;;;29.11;28.49;100519.59;5288369;33;34016;-87
2023/06/05 14:03:38;;;;;;;3.25;2.60;;;;;;;28.75;29.09;100526.66;5295744;33;34270;-87
2023/06/05 14:06:42;;;;;;;5.07;2.30;;;;;;;28.33;29.30;100520.75;5300106;33;33862;-87
2023/06/05 14:09:47;;;;;;;2.33;2.00;;;;;;;28.25;29.88;100508.34;5315779;33;33859;-87
2023/06/05 14:12:52;;;;;;;9.48;2.47;;;;;;;28.12;30.10;100509.06;5310944;33;34963;-87
2023/06/05 14:15:55;;;;;;;7.55;2.50;;;;;;;27.95;30.11;100508.66;5290897;33;34156;-87
2023/06/05 14:18:57;;;;;;;3.30;2.55;;;;;;;28.12;31.19;100508.25;5265180;33;33890;-87
2023/06/05 14:22:01;;;;;;;3.45;2.40;;;;;;;27.68;30.98;100504.44;5278292;33;34537;-88
2023/06/05 14:25:05;;;;;;;3.55;2.42;;;;;;;27.69;31.10;100505.25;5289414;33;33705;-87
2023/06/05 14:28:10;;;;;;;2.53;2.25;;;;;;;27.34;31.49;100499.69;5288047;33;33638;-86
2023/06/05 14:31:13;;;;;;;2.65;2.15;;;;;;;27.83;30.99;100503.50;5277416;33;34240;-86
2023/06/05 14:34:16;;;;;;;7.87;3.10;;;;;;;27.64;31.22;100500.59;5265746;33;33716;-86
2023/06/05 14:37:19;;;;;;;5.60;3.00;;;;;;;27.42;31.36;100495.50;5266235;33;33825;-86
2023/06/05 14:40:22;;;;;;;3.90;2.60;;;;;;;27.27;31.38;100490.09;5266414;33;34493;-87
2023/06/05 14:43:26;;;;;;;4.62;2.55;;;;;;;27.35;31.54;100493.06;5265610;33;34202;-84
2023/06/05 14:46:29;;;;;;;4.05;2.37;;;;;;;27.39;30.82;100489.72;5269534;33;238078;-85
2023/06/05 14:49:32;;;;;;;5.45;2.20;;;;;;;27.19;31.53;100496.22;5276211;33;33782;-85
2023/06/05 14:52:35;;;;;;;2.83;2.15;;;;;;;27.29;31.25;100485.94;5285215;33;34509;-84
2023/06/05 14:55:38;;;;;;;5.47;2.50;;;;;;;27.13;31.14;100490.69;5289262;33;34299;-85
2023/06/05 14:58:41;;;;;;;2.10;1.90;;;;;;;27.17;31.62;100490.16;5289445;33;33766;-85
2023/06/05 15:01:44;;;;;;;3.00;2.30;;;;;;;27.23;30.73;100481.56;5264563;33;33596;-85
2023/06/05 15:04:47;;;;;;;3.60;2.45;;;;;;;26.95;31.23;100485.00;5275938;33;33813;-85
2023/06/05 15:07:50;;;;;;;2.75;2.22;;;;;;;27.05;31.41;100491.28;5275808;33;33763;-84
2023/06/05 15:10:53;;;;;;;2.97;2.35;;;;;;;26.80;31.31;100483.97;5275886;33;34695;-85
2023/06/05 15:13:56;;;;;;;2.90;2.20;;;;;;;26.68;31.84;100489.00;5263787;33;34082;-85
2023/06/05 15:16:59;;;;;;;6.07;2.62;;;;;;;26.72;31.00;100479.03;5267536;33;33890;-85
2023/06/05 15:20:05;;;;;;;3.78;2.37;;;;;;;26.52;32.03;100481.88;5282096;33;34906;-85
2023/06/05 15:23:08;;;;;;;3.03;2.20;;;;;;;26.41;32.46;100476.38;5295169;33;34947;-85
2023/06/05 15:26:18;;;;;;;4.80;2.42;;;;;;;26.14;32.54;100470.34;5279033;33;34117;-88
2023/06/05 15:29:21;;;;;;;5.95;2.70;;;;;;;26.29;32.72;100478.59;5277168;33;33847;-89
2023/06/05 15:32:24;;;;;;;4.93;2.40;;;;;;;26.27;32.86;100469.78;5277318;33;33788;-89
2023/06/05 15:35:27;;;;;;;3.87;2.35;;;;;;;26.14;33.21;100465.66;5289940;33;34076;-85
2023/06/05 15:38:30;;;;;;;6.80;2.22;;;;;;;26.14;32.81;100462.06;5279964;33;33620;-84
2023/06/05 15:41:33;;;;;;;2.72;2.37;;;;;;;26.12;32.51;100464.28;5279728;33;33759;-85
2023/06/05 15:44:38;;;;;;;3.53;2.62;;;;;;;25.96;33.16;100453.28;5280393;33;34442;-84
2023/06/05 15:47:42;;;;;;;6.07;2.58;;;;;;;25.97;33.02;100454.94;5279659;33;34097;-85
2023/06/05 15:50:45;;;;;;;4.82;2.58;;;;;;;26.07;32.98;100456.84;5277867;33;33961;-85
2023/06/05 15:53:48;;;;;;;2.87;2.47;;;;;;;26.01;33.39;100455.22;5288876;33;33585;-85
2023/06/05 15:57:08;;;;;;;2.92;2.28;;;;;;;26.07;33.29;100456.84;5277617;33;33493;-85
